createdAt,value
2023-09-29T00:00:25.611Z,6.93
2023-09-29T00:02:56.635Z,12.98
2023-09-29T00:05:25.842Z,12.32
2023-09-29T00:07:54.582Z,10.65
2023-09-29T00:10:24.417Z,8.52
2023-09-29T00:12:53.655Z,9.75
2023-09-29T00:15:24.133Z,11.43
2023-09-29T00:17:52.984Z,11.65
2023-09-29T00:20:24.951Z,10.48
2023-09-29T00:22:54.901Z,9.00
2023-09-29T00:25:24.929Z,8.48
2023-09-29T00:27:54.665Z,8.75
2023-09-29T00:30:25.253Z,7.68
2023-09-29T00:32:55.492Z,4.93
2023-09-29T00:35:29.289Z,9.65
2023-09-29T00:38:00.123Z,12.43
2023-09-29T00:40:29.663Z,10.90
2023-09-29T00:43:00.080Z,10.52
2023-09-29T00:45:32.042Z,7.80
2023-09-29T00:48:08.657Z,12.13
2023-09-29T00:50:40.216Z,10.32
2023-09-29T00:53:14.886Z,8.02
2023-09-29T00:55:46.564Z,7.57
2023-09-29T00:58:17.032Z,5.65
2023-09-29T01:00:47.612Z,9.85
2023-09-29T01:03:17.217Z,12.35
2023-09-29T01:05:47.750Z,14.70
2023-09-29T01:08:19.026Z,11.20
2023-09-29T01:10:47.735Z,13.38
2023-09-29T01:13:16.683Z,10.63
2023-09-29T01:15:47.045Z,11.27
2023-09-29T01:18:17.731Z,8.25
2023-09-29T01:20:46.629Z,8.50
2023-09-29T01:23:16.019Z,5.22
2023-09-29T01:25:47.333Z,15.20
2023-09-29T01:28:16.014Z,7.95
2023-09-29T01:30:46.158Z,10.63
2023-09-29T01:33:14.988Z,11.95
2023-09-29T01:35:45.479Z,8.40
2023-09-29T01:38:14.678Z,12.48
2023-09-29T01:40:45.715Z,9.52
2023-09-29T01:43:17.312Z,8.15
2023-09-29T01:45:46.096Z,6.75
2023-09-29T01:48:15.066Z,9.60
2023-09-29T01:50:44.002Z,7.63
2023-09-29T01:53:13.271Z,7.40
2023-09-29T01:55:42.038Z,6.78
2023-09-29T01:58:11.352Z,8.43
2023-09-29T02:00:41.676Z,10.02
2023-09-29T02:03:12.909Z,10.90
2023-09-29T02:05:41.668Z,15.35
2023-09-29T02:08:11.307Z,16.02
2023-09-29T02:10:40.080Z,12.63
2023-09-29T02:13:09.061Z,14.40
2023-09-29T02:15:37.862Z,15.15
2023-09-29T02:18:10.747Z,5.88
2023-09-29T02:20:43.606Z,10.32
2023-09-29T02:23:12.296Z,7.07
2023-09-29T02:25:41.959Z,6.40
2023-09-29T02:28:11.627Z,9.50
2023-09-29T02:30:40.741Z,9.88
2023-09-29T02:33:11.698Z,10.18
2023-09-29T02:35:40.451Z,17.55
2023-09-29T02:38:09.045Z,8.57
2023-09-29T02:40:37.672Z,10.10
2023-09-29T02:43:06.537Z,13.23
2023-09-29T02:45:36.170Z,11.50
2023-09-29T02:48:04.888Z,10.07
2023-09-29T02:50:36.370Z,8.40
2023-09-29T02:53:07.731Z,10.93
2023-09-29T02:55:36.442Z,8.15
2023-09-29T02:58:05.795Z,7.68
2023-09-29T03:00:34.633Z,8.20
2023-09-29T03:03:05.211Z,11.45
2023-09-29T03:05:35.681Z,7.95
2023-09-29T03:08:05.255Z,7.85
2023-09-29T03:10:34.149Z,8.68
2023-09-29T03:13:06.195Z,11.02
2023-09-29T03:15:36.173Z,8.43
2023-09-29T03:18:07.110Z,10.45
2023-09-29T03:20:37.368Z,11.35
2023-09-29T03:23:06.939Z,8.15
2023-09-29T03:25:35.535Z,6.38
2023-09-29T03:28:06.527Z,7.40
2023-09-29T03:30:35.442Z,13.85
2023-09-29T03:33:04.677Z,9.15
2023-09-29T03:35:33.995Z,6.40
2023-09-29T03:38:06.384Z,11.35
2023-09-29T03:40:35.250Z,8.27
2023-09-29T03:43:04.560Z,7.53
2023-09-29T03:45:34.222Z,16.77
2023-09-29T03:48:04.710Z,8.13
2023-09-29T03:50:34.236Z,9.55
2023-09-29T03:53:04.329Z,11.38
2023-09-29T03:55:32.629Z,11.60
2023-09-29T03:58:01.211Z,6.60
2023-09-29T04:00:31.433Z,9.10
2023-09-29T04:03:00.185Z,10.10
2023-09-29T04:05:29.116Z,8.30
2023-09-29T04:07:57.792Z,10.38
2023-09-29T04:10:27.787Z,12.48
2023-09-29T04:12:56.386Z,6.75
2023-09-29T04:15:26.845Z,11.18
2023-09-29T04:17:55.622Z,8.68
2023-09-29T04:20:25.113Z,11.27
2023-09-29T04:22:54.066Z,7.55
2023-09-29T04:25:22.865Z,9.02
2023-09-29T04:27:52.793Z,8.05
2023-09-29T04:30:21.607Z,10.15
2023-09-29T04:32:50.498Z,10.98
2023-09-29T04:35:19.239Z,13.45
2023-09-29T04:37:48.551Z,12.25
2023-09-29T04:40:17.295Z,14.88
2023-09-29T04:42:46.405Z,8.38
2023-09-29T04:45:16.395Z,10.80
2023-09-29T04:47:45.368Z,10.18
2023-09-29T04:50:15.216Z,7.63
2023-09-29T04:52:43.925Z,8.95
2023-09-29T04:55:12.816Z,22.55
2023-09-29T04:57:41.452Z,9.38
2023-09-29T05:00:11.038Z,9.32
2023-09-29T05:02:41.468Z,13.20
2023-09-29T05:05:10.927Z,8.85
2023-09-29T05:07:39.521Z,7.82
2023-09-29T05:10:09.326Z,5.50
2023-09-29T05:12:38.893Z,10.75
2023-09-29T05:15:09.393Z,12.93
2023-09-29T05:20:15.230Z,21.42
2023-09-29T05:22:43.849Z,11.18
2023-09-29T05:25:12.809Z,11.65
2023-09-29T05:27:41.475Z,15.77
2023-09-29T05:30:11.044Z,8.25
2023-09-29T05:32:39.796Z,15.18
2023-09-29T05:35:09.806Z,8.98
2023-09-29T05:37:39.906Z,11.27
2023-09-29T05:40:09.844Z,9.50
2023-09-29T05:42:51.720Z,9.07
2023-09-29T05:45:22.765Z,9.75
2023-09-29T05:47:53.179Z,11.35
2023-09-29T05:50:22.681Z,11.02
2023-09-29T05:53:09.091Z,12.13
2023-09-29T05:55:40.174Z,8.52
2023-09-29T05:58:08.920Z,15.25
2023-09-29T06:00:38.034Z,10.65
2023-09-29T06:03:07.115Z,10.70
2023-09-29T06:05:35.808Z,13.45
2023-09-29T06:08:07.484Z,8.75
2023-09-29T06:10:36.172Z,14.48
2023-09-29T06:13:05.249Z,12.48
2023-09-29T06:15:34.629Z,8.57
2023-09-29T06:18:03.706Z,13.65
2023-09-29T06:20:32.917Z,12.73
2023-09-29T06:23:01.557Z,15.65
2023-09-29T06:25:31.684Z,15.02
2023-09-29T06:28:00.291Z,14.00
2023-09-29T06:30:28.986Z,9.90
2023-09-29T06:32:58.320Z,12.38
2023-09-29T06:35:27.050Z,19.30
2023-09-29T06:37:55.733Z,12.68
2023-09-29T06:40:24.515Z,7.40
2023-09-29T06:42:54.457Z,17.40
2023-09-29T06:45:28.902Z,14.38
2023-09-29T06:48:01.285Z,10.20
2023-09-29T06:50:30.018Z,13.27
2023-09-29T06:52:58.855Z,12.00
2023-09-29T06:55:27.802Z,9.07
2023-09-29T06:57:59.596Z,16.08
2023-09-29T07:00:28.598Z,9.98
2023-09-29T07:02:57.394Z,15.02
2023-09-29T07:05:26.137Z,16.73
2023-09-29T07:07:55.397Z,11.57
2023-09-29T07:10:24.545Z,9.55
2023-09-29T07:12:53.198Z,17.75
2023-09-29T07:15:24.614Z,18.98
2023-09-29T07:17:53.494Z,9.93
2023-09-29T07:20:22.185Z,12.48
2023-09-29T07:22:52.552Z,14.45
2023-09-29T07:25:23.608Z,7.68
2023-09-29T07:27:52.399Z,10.35
2023-09-29T07:30:22.608Z,11.23
2023-09-29T07:32:51.362Z,12.13
2023-09-29T07:35:20.584Z,12.32
2023-09-29T07:37:49.356Z,11.48
2023-09-29T07:40:18.282Z,9.80
2023-09-29T07:42:48.616Z,11.10
2023-09-29T07:45:18.701Z,11.10
2023-09-29T07:47:49.037Z,10.27
2023-09-29T07:50:18.397Z,13.98
2023-09-29T07:52:47.136Z,10.45
2023-09-29T07:55:15.986Z,18.27
2023-09-29T07:57:44.641Z,7.70
2023-09-29T08:00:16.141Z,8.73
2023-09-29T08:02:46.514Z,9.68
2023-09-29T08:05:17.205Z,13.55
2023-09-29T08:07:45.859Z,8.88
2023-09-29T08:10:14.510Z,13.27
2023-09-29T08:12:43.178Z,14.52
2023-09-29T08:15:14.705Z,15.95
2023-09-29T08:17:45.097Z,10.18
2023-09-29T08:20:16.892Z,14.13
2023-09-29T08:22:47.882Z,7.07
2023-09-29T08:25:17.644Z,13.55
2023-09-29T08:27:46.317Z,7.32
2023-09-29T08:30:15.316Z,9.90
2023-09-29T08:32:45.070Z,11.35
2023-09-29T08:35:15.215Z,14.27
2023-09-29T08:37:47.402Z,8.02
2023-09-29T08:40:18.722Z,10.15
2023-09-29T08:42:50.772Z,9.82
2023-09-29T08:45:21.436Z,13.35
2023-09-29T08:47:53.366Z,15.50
2023-09-29T08:50:25.918Z,8.07
2023-09-29T08:52:58.637Z,15.68
2023-09-29T08:55:29.506Z,9.50
2023-09-29T08:57:58.564Z,6.53
2023-09-29T09:00:27.986Z,7.40
2023-09-29T09:02:59.733Z,6.63
2023-09-29T09:05:29.194Z,13.88
2023-09-29T09:08:02.892Z,11.32
2023-09-29T09:10:35.417Z,12.43
2023-09-29T09:13:04.656Z,9.23
2023-09-29T09:15:33.620Z,7.88
2023-09-29T09:18:03.355Z,12.05
2023-09-29T09:20:32.315Z,9.07
2023-09-29T09:23:04.485Z,13.85
2023-09-29T09:25:36.290Z,5.57
2023-09-29T09:28:05.420Z,4.93
2023-09-29T09:30:37.199Z,8.73
2023-09-29T09:33:07.560Z,10.60
2023-09-29T09:35:39.611Z,4.90
2023-09-29T09:38:10.036Z,9.13
2023-09-29T09:40:39.013Z,5.35
2023-09-29T09:43:10.112Z,6.13
2023-09-29T09:45:41.647Z,5.38
2023-09-29T09:48:12.107Z,6.03
2023-09-29T09:50:46.991Z,6.55
2023-09-29T09:53:22.060Z,7.85
2023-09-29T09:56:03.007Z,13.00
2023-09-29T09:58:33.438Z,7.45
2023-09-29T10:01:02.031Z,8.90
2023-09-29T10:03:33.050Z,11.73
2023-09-29T10:06:02.645Z,4.78
2023-09-29T10:08:34.541Z,9.18
2023-09-29T10:11:14.125Z,12.40
2023-09-29T10:13:45.428Z,9.60
2023-09-29T10:16:24.848Z,8.63
2023-09-29T10:18:59.066Z,7.43
2023-09-29T10:21:29.871Z,10.23
2023-09-29T10:24:02.054Z,8.95
2023-09-29T10:26:31.030Z,8.77
2023-09-29T10:29:04.036Z,11.35
2023-09-29T10:31:32.845Z,6.28
2023-09-29T10:34:02.555Z,5.38
2023-09-29T10:36:33.042Z,11.05
2023-09-29T10:39:05.477Z,13.27
2023-09-29T10:41:37.164Z,10.52
2023-09-29T10:44:06.791Z,12.90
2023-09-29T10:46:35.733Z,9.18
2023-09-29T10:49:04.804Z,12.65
2023-09-29T10:51:33.903Z,7.65
2023-09-29T10:54:08.345Z,11.23
2023-09-29T10:56:39.107Z,4.47
2023-09-29T10:59:09.778Z,5.60
2023-09-29T11:01:38.999Z,7.07
2023-09-29T11:04:12.054Z,3.63
2023-09-29T11:06:46.861Z,2.97
2023-09-29T11:09:26.825Z,14.55
2023-09-29T11:11:55.626Z,3.65
2023-09-29T11:14:26.349Z,4.22
2023-09-29T11:16:59.324Z,3.67
2023-09-29T11:19:31.782Z,3.33
2023-09-29T11:22:02.863Z,7.50
2023-09-29T11:24:43.658Z,3.38
2023-09-29T11:27:15.359Z,3.58
2023-09-29T11:29:44.514Z,2.95
2023-09-29T11:32:13.234Z,10.98
2023-09-29T11:34:42.567Z,5.60
2023-09-29T11:37:11.678Z,9.00
2023-09-29T11:39:41.628Z,4.97
2023-09-29T11:42:10.312Z,6.68
2023-09-29T11:44:38.909Z,5.10
2023-09-29T11:47:07.626Z,9.63
2023-09-29T11:49:36.277Z,7.50
2023-09-29T11:52:05.080Z,12.40
2023-09-29T11:54:33.676Z,5.10
2023-09-29T11:57:04.328Z,11.95
2023-09-29T11:59:33.207Z,5.97
2023-09-29T12:02:01.860Z,5.00
2023-09-29T12:04:30.637Z,4.45
2023-09-29T12:06:59.269Z,2.78
2023-09-29T12:09:27.868Z,7.13
2023-09-29T12:11:56.461Z,3.92
2023-09-29T12:14:27.447Z,3.42
2023-09-29T12:16:56.196Z,4.28
2023-09-29T12:19:25.139Z,3.45
2023-09-29T12:21:53.986Z,7.65
2023-09-29T12:24:22.784Z,2.10
2023-09-29T12:26:51.500Z,4.32
2023-09-29T12:29:20.100Z,2.92
2023-09-29T12:31:51.531Z,4.95
2023-09-29T12:34:20.224Z,10.43
2023-09-29T12:36:48.836Z,3.28
2023-09-29T12:39:17.600Z,6.78
2023-09-29T12:41:46.290Z,4.90
2023-09-29T12:44:14.986Z,18.15
2023-09-29T12:46:43.608Z,8.93
2023-09-29T12:49:13.929Z,5.10
2023-09-29T12:51:53.596Z,8.38
2023-09-29T12:54:28.731Z,7.22
2023-09-29T12:57:02.988Z,6.90
2023-09-29T12:59:37.133Z,12.82
2023-09-29T13:02:06.532Z,9.32
2023-09-29T13:04:37.780Z,7.07
2023-09-29T13:07:06.858Z,8.30
2023-09-29T13:09:35.421Z,7.00
2023-09-29T13:12:08.526Z,10.45
2023-09-29T13:14:42.528Z,6.97
2023-09-29T13:17:11.220Z,6.93
2023-09-29T13:19:41.877Z,12.80
2023-09-29T13:22:10.485Z,7.00
2023-09-29T13:24:39.072Z,5.72
2023-09-29T13:27:08.608Z,8.00
2023-09-29T13:29:37.238Z,9.00
2023-09-29T13:32:06.141Z,11.90
2023-09-29T13:34:34.785Z,15.25
2023-09-29T13:37:04.754Z,18.70
2023-09-29T13:39:33.698Z,16.00
2023-09-29T13:42:02.362Z,16.95
2023-09-29T13:44:30.977Z,15.57
2023-09-29T13:47:04.331Z,14.98
2023-09-29T13:49:33.882Z,22.83
2023-09-29T13:52:04.068Z,14.85
2023-09-29T13:54:32.724Z,16.58
2023-09-29T13:57:04.174Z,14.13
2023-09-29T13:59:32.864Z,16.67
2023-09-29T14:02:01.278Z,24.40
2023-09-29T14:04:30.417Z,22.73
2023-09-29T14:06:59.056Z,23.17
2023-09-29T14:09:28.933Z,24.88
2023-09-29T14:11:57.926Z,29.25
2023-09-29T14:14:26.539Z,31.60
2023-09-29T14:16:55.116Z,36.38
2023-09-29T14:19:23.768Z,42.55
2023-09-29T14:21:52.708Z,40.10
2023-09-29T14:24:21.363Z,37.42
2023-09-29T14:26:51.397Z,48.90
2023-09-29T14:29:20.068Z,46.95
2023-09-29T14:31:49.973Z,53.42
2023-09-29T14:34:18.719Z,45.30
2023-09-29T14:36:47.066Z,50.10
2023-09-29T14:39:16.659Z,48.85
2023-09-29T14:41:46.339Z,46.78
2023-09-29T14:44:16.902Z,50.22
2023-09-29T14:46:45.495Z,48.63
2023-09-29T14:49:14.296Z,55.90
2023-09-29T14:51:43.041Z,51.47
2023-09-29T14:54:11.677Z,61.03
2023-09-29T14:56:40.584Z,50.83
2023-09-29T14:59:09.246Z,45.47
2023-09-29T15:01:39.272Z,56.33
2023-09-29T15:04:08.197Z,51.35
2023-09-29T15:06:36.668Z,53.80
2023-09-29T15:09:05.663Z,45.88
2023-09-29T15:11:35.009Z,43.53
2023-09-29T15:14:04.168Z,45.72
2023-09-29T15:16:34.340Z,45.78
2023-09-29T15:19:07.080Z,41.47
2023-09-29T15:21:37.724Z,48.75
2023-09-29T15:24:07.106Z,55.20
2023-09-29T15:26:35.799Z,44.10
2023-09-29T15:29:04.871Z,48.25
2023-09-29T15:31:33.955Z,49.70
2023-09-29T15:34:05.543Z,46.22
2023-09-29T15:36:34.552Z,49.90
2023-09-29T15:39:04.625Z,46.83
2023-09-29T15:41:33.581Z,48.72
2023-09-29T15:44:02.313Z,42.65
2023-09-29T15:46:31.335Z,52.85
2023-09-29T15:49:00.035Z,48.22
2023-09-29T15:51:30.206Z,41.63
2023-09-29T15:54:00.191Z,47.40
2023-09-29T15:56:28.955Z,43.03
2023-09-29T15:58:57.525Z,35.50
2023-09-29T16:01:26.156Z,39.40
2023-09-29T16:03:54.764Z,47.55
2023-09-29T16:06:23.572Z,36.55
2023-09-29T16:08:53.705Z,36.90
2023-09-29T16:11:22.439Z,28.80
2023-09-29T16:13:51.284Z,30.15
2023-09-29T16:16:19.980Z,31.33
2023-09-29T16:18:48.702Z,41.05
2023-09-29T16:21:20.817Z,32.47
2023-09-29T16:23:49.833Z,31.75
2023-09-29T16:26:21.069Z,36.22
2023-09-29T16:28:49.723Z,34.08
2023-09-29T16:31:18.359Z,26.77
2023-09-29T16:33:47.612Z,34.03
2023-09-29T16:36:20.691Z,27.60
2023-09-29T16:38:50.480Z,33.58
2023-09-29T16:41:26.569Z,30.98
2023-09-29T16:43:55.648Z,27.92
2023-09-29T16:46:27.002Z,28.60
2023-09-29T16:48:55.787Z,32.65
2023-09-29T16:51:27.451Z,29.40
2023-09-29T16:53:57.707Z,32.75
2023-09-29T16:56:29.814Z,29.75
2023-09-29T16:58:58.857Z,30.38
2023-09-29T17:01:27.728Z,26.85
2023-09-29T17:03:56.923Z,20.40
2023-09-29T17:06:25.856Z,23.58
2023-09-29T17:08:56.258Z,28.58
2023-09-29T17:11:25.117Z,28.67
2023-09-29T17:13:55.692Z,27.08
2023-09-29T17:16:24.704Z,25.33
2023-09-29T17:18:53.392Z,28.55
2023-09-29T17:21:24.256Z,20.85
2023-09-29T17:23:54.243Z,25.52
2023-09-29T17:26:22.923Z,23.52
2023-09-29T17:28:51.572Z,23.92
2023-09-29T17:31:22.046Z,27.80
2023-09-29T17:33:50.810Z,19.75
2023-09-29T17:36:19.890Z,18.70
2023-09-29T17:38:48.647Z,11.85
2023-09-29T17:41:17.641Z,15.13
2023-09-29T17:43:46.361Z,9.75
2023-09-29T17:46:15.004Z,6.75
2023-09-29T17:48:44.796Z,9.30
2023-09-29T17:51:14.115Z,13.90
2023-09-29T17:53:43.021Z,12.27
2023-09-29T17:56:13.490Z,11.13
2023-09-29T17:58:42.729Z,9.95
2023-09-29T18:01:12.595Z,10.90
2023-09-29T18:03:43.034Z,9.25
2023-09-29T18:06:13.799Z,12.07
2023-09-29T18:08:42.543Z,10.98
2023-09-29T18:11:11.289Z,8.95
2023-09-29T18:13:40.127Z,10.40
2023-09-29T18:16:09.383Z,5.95
2023-09-29T18:18:38.398Z,12.80
2023-09-29T18:21:07.215Z,10.73
2023-09-29T18:23:37.719Z,13.75
2023-09-29T18:26:06.182Z,11.20
2023-09-29T18:28:35.593Z,8.07
2023-09-29T18:31:07.121Z,9.95
2023-09-29T18:33:36.674Z,9.25
2023-09-29T18:36:06.361Z,9.77
2023-09-29T18:38:36.367Z,10.07
2023-09-29T18:41:04.962Z,11.88
2023-09-29T18:43:34.051Z,8.57
2023-09-29T18:46:03.691Z,7.63
2023-09-29T18:48:32.801Z,7.55
2023-09-29T18:51:04.510Z,7.28
2023-09-29T18:53:33.995Z,7.38
2023-09-29T18:56:04.458Z,6.00
2023-09-29T18:58:33.049Z,9.07
2023-09-29T19:01:01.648Z,9.80
2023-09-29T19:03:30.346Z,8.20
2023-09-29T19:06:03.572Z,11.88
2023-09-29T19:08:32.879Z,6.43
2023-09-29T19:11:04.368Z,7.93
2023-09-29T19:13:33.943Z,7.50
2023-09-29T19:16:03.713Z,7.88
2023-09-29T19:18:32.671Z,8.93
2023-09-29T19:21:01.804Z,5.47
2023-09-29T19:23:31.082Z,7.00
2023-09-29T19:26:01.434Z,5.47
2023-09-29T19:28:31.412Z,5.60
2023-09-29T19:30:59.999Z,12.02
2023-09-29T19:33:28.841Z,6.97
2023-09-29T19:35:57.572Z,6.00
2023-09-29T19:38:26.217Z,6.40
2023-09-29T19:40:54.840Z,5.47
2023-09-29T19:43:24.524Z,5.65
2023-09-29T19:45:54.548Z,5.82
2023-09-29T19:48:23.232Z,5.32
2023-09-29T19:50:51.909Z,7.55
2023-09-29T19:53:20.579Z,7.03
2023-09-29T19:55:49.563Z,5.93
2023-09-29T19:58:18.541Z,5.00
2023-09-29T20:00:47.195Z,4.65
2023-09-29T20:03:17.254Z,8.25
2023-09-29T20:05:46.242Z,3.80
2023-09-29T20:08:14.930Z,7.82
2023-09-29T20:10:44.218Z,6.47
2023-09-29T20:13:13.255Z,3.25
2023-09-29T20:15:41.926Z,3.90
2023-09-29T20:18:10.734Z,3.85
2023-09-29T20:20:40.846Z,6.82
2023-09-29T20:23:09.863Z,6.20
2023-09-29T20:25:38.461Z,6.05
2023-09-29T20:28:07.641Z,5.05
2023-09-29T20:30:36.358Z,4.78
2023-09-29T20:33:05.303Z,2.33
2023-09-29T20:35:34.031Z,2.92
2023-09-29T20:38:04.055Z,2.45
2023-09-29T20:40:32.651Z,2.63
2023-09-29T20:43:01.342Z,1.35
2023-09-29T20:45:31.961Z,1.17
2023-09-29T20:48:01.199Z,2.80
2023-09-29T20:50:33.295Z,2.05
2023-09-29T20:53:03.432Z,3.55
2023-09-29T20:55:32.163Z,2.45
2023-09-29T20:58:00.857Z,1.42
2023-09-29T21:00:30.683Z,3.28
2023-09-29T21:02:59.424Z,1.73
2023-09-29T21:05:28.156Z,4.97
2023-09-29T21:07:57.164Z,9.07
2023-09-29T21:10:27.262Z,1.85
2023-09-29T21:12:55.902Z,1.70
2023-09-29T21:15:26.428Z,2.38
2023-09-29T21:17:55.121Z,3.97
2023-09-29T21:20:23.872Z,2.53
2023-09-29T21:22:54.063Z,0.85
2023-09-29T21:25:23.212Z,2.63
2023-09-29T21:27:53.367Z,2.08
2023-09-29T21:30:22.690Z,4.88
2023-09-29T21:32:51.442Z,7.13
2023-09-29T21:35:20.319Z,0.75
2023-09-29T21:37:48.956Z,0.75
2023-09-29T21:40:20.190Z,2.80
2023-09-29T21:42:48.880Z,8.35
2023-09-29T21:45:18.874Z,4.57
2023-09-29T21:47:48.604Z,2.42
2023-09-29T21:50:17.373Z,2.85
2023-09-29T21:52:45.980Z,3.65
2023-09-29T21:55:14.754Z,3.15
2023-09-29T21:57:43.547Z,4.95
2023-09-29T22:00:18.312Z,7.15
2023-09-29T22:02:48.945Z,3.08
2023-09-29T22:05:19.627Z,8.20
2023-09-29T22:07:48.607Z,6.35
2023-09-29T22:10:17.242Z,3.45
2023-09-29T22:12:46.698Z,7.68
2023-09-29T22:15:17.162Z,2.92
2023-09-29T22:17:47.866Z,3.67
2023-09-29T22:20:18.420Z,3.70
2023-09-29T22:22:47.093Z,12.68
2023-09-29T22:25:16.484Z,4.43
2023-09-29T22:27:45.239Z,4.65
2023-09-29T22:30:14.704Z,3.08
2023-09-29T22:32:43.562Z,10.02
2023-09-29T22:35:13.812Z,6.03
2023-09-29T22:37:42.512Z,8.52
2023-09-29T22:40:12.317Z,5.75
2023-09-29T22:42:41.138Z,4.50
2023-09-29T22:45:10.792Z,5.68
2023-09-29T22:47:39.554Z,4.90
2023-09-29T22:50:09.494Z,8.07
2023-09-29T22:52:39.890Z,4.03
2023-09-29T22:55:09.995Z,4.53
2023-09-29T22:57:38.917Z,2.53
2023-09-29T23:00:13.202Z,5.03
2023-09-29T23:02:45.034Z,6.28
2023-09-29T23:05:13.829Z,3.15
2023-09-29T23:07:43.917Z,7.13
2023-09-29T23:10:15.315Z,7.88
2023-09-29T23:12:46.880Z,3.50
2023-09-29T23:15:16.156Z,3.65
2023-09-29T23:17:45.083Z,3.40
2023-09-29T23:20:17.395Z,3.35
2023-09-29T23:22:47.501Z,5.50
2023-09-29T23:25:16.309Z,7.28
2023-09-29T23:27:45.041Z,6.13
2023-09-29T23:30:14.751Z,10.38
2023-09-29T23:32:43.740Z,5.22
2023-09-29T23:35:12.582Z,9.25
2023-09-29T23:37:41.393Z,4.75
2023-09-29T23:40:13.874Z,3.25
2023-09-29T23:42:43.444Z,4.60
2023-09-29T23:45:12.494Z,7.28
2023-09-29T23:47:40.986Z,4.75
2023-09-29T23:50:10.251Z,5.28
2023-09-29T23:52:39.164Z,3.08
2023-09-29T23:55:10.913Z,4.55
2023-09-29T23:57:40.481Z,11.07
